sensor_id;sensor_type;location;lat;lon;timestamp;pressure;altitude;pressure_sealevel;temperature;humidity
20909;BME280;10614;53.198;6.570;2024-01-06T00:01:14;100436.91;;;1.79;100.00
20909;BME280;10614;53.198;6.570;2024-01-06T00:03:16;100431.81;;;1.71;100.00
20909;BME280;10614;53.198;6.570;2024-01-06T00:05:18;100444.72;;;1.76;100.00
20909;BME280;10614;53.198;6.570;2024-01-06T00:07:20;100452.53;;;1.74;100.00
20909;BME280;10614;53.198;6.570;2024-01-06T00:09:22;100437.91;;;1.65;100.00
20909;BME280;10614;53.198;6.570;2024-01-06T00:11:23;100449.13;;;1.66;100.00
20909;BME280;10614;53.198;6.570;2024-01-06T00:13:27;100456.94;;;1.63;100.00
20909;BME280;10614;53.198;6.570;2024-01-06T00:15:28;100455.22;;;1.63;100.00
20909;BME280;10614;53.198;6.570;2024-01-06T00:17:30;100456.94;;;1.61;100.00
20909;BME280;10614;53.198;6.570;2024-01-06T00:19:32;100456.09;;;1.62;100.00
20909;BME280;10614;53.198;6.570;2024-01-06T00:21:34;100466.41;;;1.68;100.00
20909;BME280;10614;53.198;6.570;2024-01-06T00:23:34;100469.00;;;1.68;100.00
20909;BME280;10614;53.198;6.570;2024-01-06T00:34:18;100478.66;;;1.53;100.00
20909;BME280;10614;53.198;6.570;2024-01-06T00:36:20;100491.59;;;1.54;100.00
20909;BME280;10614;53.198;6.570;2024-01-06T00:38:21;100483.88;;;1.50;100.00
20909;BME280;10614;53.198;6.570;2024-01-06T00:40:23;100487.31;;;1.53;100.00
20909;BME280;10614;53.198;6.570;2024-01-06T00:42:25;100489.03;;;1.53;100.00
20909;BME280;10614;53.198;6.570;2024-01-06T00:44:27;100486.50;;;1.46;100.00
20909;BME280;10614;53.198;6.570;2024-01-06T00:46:29;100486.41;;;1.54;100.00
20909;BME280;10614;53.198;6.570;2024-01-06T00:48:31;100492.50;;;1.52;100.00
20909;BME280;10614;53.198;6.570;2024-01-06T00:50:34;100499.41;;;1.53;100.00
20909;BME280;10614;53.198;6.570;2024-01-06T00:52:36;100505.44;;;1.56;100.00
20909;BME280;10614;53.198;6.570;2024-01-06T00:54:36;100511.47;;;1.60;100.00
20909;BME280;10614;53.198;6.570;2024-01-06T00:56:38;100512.34;;;1.54;100.00
20909;BME280;10614;53.198;6.570;2024-01-06T00:58:42;100512.34;;;1.54;100.00
20909;BME280;10614;53.198;6.570;2024-01-06T01:00:43;100525.28;;;1.59;100.00
20909;BME280;10614;53.198;6.570;2024-01-06T01:02:44;100521.03;;;1.52;100.00
20909;BME280;10614;53.198;6.570;2024-01-06T01:04:46;100535.69;;;1.54;100.00
20909;BME280;10614;53.198;6.570;2024-01-06T01:06:49;100541.75;;;1.56;100.00
20909;BME280;10614;53.198;6.570;2024-01-06T01:08:51;100547.81;;;1.55;100.00
20909;BME280;10614;53.198;6.570;2024-01-06T01:10:53;100544.38;;;1.55;100.00
20909;BME280;10614;53.198;6.570;2024-01-06T01:12:54;100553.84;;;1.57;100.00
20909;BME280;10614;53.198;6.570;2024-01-06T01:14:56;100561.66;;;1.57;100.00
20909;BME280;10614;53.198;6.570;2024-01-06T01:16:58;100559.09;;;1.53;100.00
20909;BME280;10614;53.198;6.570;2024-01-06T01:18:59;100554.78;;;1.48;100.00
20909;BME280;10614;53.198;6.570;2024-01-06T01:21:02;100563.41;;;1.49;100.00
20909;BME280;10614;53.198;6.570;2024-01-06T01:23:05;100549.66;;;1.38;100.00
20909;BME280;10614;53.198;6.570;2024-01-06T01:25:06;100560.00;;;1.42;100.00
20909;BME280;10614;53.198;6.570;2024-01-06T01:27:08;100572.94;;;1.47;100.00
20909;BME280;10614;53.198;6.570;2024-01-06T01:29:10;100560.84;;;1.47;100.00
20909;BME280;10614;53.198;6.570;2024-01-06T01:31:12;100570.34;;;1.48;100.00
20909;BME280;10614;53.198;6.570;2024-01-06T01:33:13;100574.69;;;1.46;100.00
20909;BME280;10614;53.198;6.570;2024-01-06T01:35:15;100582.50;;;1.43;100.00
20909;BME280;10614;53.198;6.570;2024-01-06T01:37:17;100589.41;;;1.41;100.00
20909;BME280;10614;53.198;6.570;2024-01-06T01:39:20;100574.75;;;1.37;100.00
20909;BME280;10614;53.198;6.570;2024-01-06T01:41:22;100574.72;;;1.40;100.00
20909;BME280;10614;53.198;6.570;2024-01-06T01:43:24;100577.34;;;1.39;100.00
20909;BME280;10614;53.198;6.570;2024-01-06T01:45:25;100571.28;;;1.38;100.00
20909;BME280;10614;53.198;6.570;2024-01-06T01:47:27;100559.19;;;1.37;100.00
20909;BME280;10614;53.198;6.570;2024-01-06T01:49:29;100574.69;;;1.48;100.00
20909;BME280;10614;53.198;6.570;2024-01-06T01:51:33;100570.34;;;1.50;100.00
20909;BME280;10614;53.198;6.570;2024-01-06T01:53:36;100570.34;;;1.50;100.00
20909;BME280;10614;53.198;6.570;2024-01-06T01:55:39;100572.94;;;1.47;100.00
20909;BME280;10614;53.198;6.570;2024-01-06T01:57:41;100582.44;;;1.53;100.00
20909;BME280;10614;53.198;6.570;2024-01-06T01:59:43;100585.03;;;1.51;100.00
20909;BME280;10614;53.198;6.570;2024-01-06T02:01:45;100592.81;;;1.51;100.00
20909;BME280;10614;53.198;6.570;2024-01-06T02:03:47;100589.38;;;1.46;100.00
20909;BME280;10614;53.198;6.570;2024-01-06T02:05:49;100592.88;;;1.42;100.00
20909;BME280;10614;53.198;6.570;2024-01-06T02:07:51;100598.91;;;1.44;100.00
20909;BME280;10614;53.198;6.570;2024-01-06T02:09:53;100598.94;;;1.41;100.00
20909;BME280;10614;53.198;6.570;2024-01-06T02:11:56;100602.38;;;1.40;100.00
20909;BME280;10614;53.198;6.570;2024-01-06T02:14:00;100604.16;;;1.36;100.00
20909;BME280;10614;53.198;6.570;2024-01-06T02:16:03;100603.28;;;1.34;100.00
20909;BME280;10614;53.198;6.570;2024-01-06T02:18:04;100617.13;;;1.33;100.00
20909;BME280;10614;53.198;6.570;2024-01-06T02:20:07;100617.13;;;1.36;100.00
20909;BME280;10614;53.198;6.570;2024-01-06T02:22:10;100611.97;;;1.27;100.00
20909;BME280;10614;53.198;6.570;2024-01-06T02:24:12;100605.94;;;1.26;100.00
20909;BME280;10614;53.198;6.570;2024-01-06T02:26:14;100616.28;;;1.30;100.00
20909;BME280;10614;53.198;6.570;2024-01-06T02:28:16;100626.66;;;1.30;100.00
20909;BME280;10614;53.198;6.570;2024-01-06T02:30:17;100616.31;;;1.26;100.00
20909;BME280;10614;53.198;6.570;2024-01-06T02:32:18;100626.69;;;1.25;100.00
20909;BME280;10614;53.198;6.570;2024-01-06T02:34:20;100625.81;;;1.21;100.00
20909;BME280;10614;53.198;6.570;2024-01-06T02:36:22;100627.56;;;1.22;100.00
20909;BME280;10614;53.198;6.570;2024-01-06T02:38:25;100626.72;;;1.20;100.00
20909;BME280;10614;53.198;6.570;2024-01-06T02:40:27;100624.09;;;1.23;100.00
20909;BME280;10614;53.198;6.570;2024-01-06T02:42:27;100620.66;;;1.18;100.00
20909;BME280;10614;53.198;6.570;2024-01-06T02:44:29;100626.72;;;1.20;100.00
20909;BME280;10614;53.198;6.570;2024-01-06T02:46:30;100632.78;;;1.15;100.00
20909;BME280;10614;53.198;6.570;2024-01-06T02:48:31;100641.41;;;1.12;100.00
20909;BME280;10614;53.198;6.570;2024-01-06T02:50:32;100642.31;;;1.08;100.00
20909;BME280;10614;53.198;6.570;2024-01-06T02:52:34;100650.06;;;1.10;100.00
20909;BME280;10614;53.198;6.570;2024-01-06T02:54:37;100644.91;;;1.07;100.00
20909;BME280;10614;53.198;6.570;2024-01-06T02:56:37;100632.88;;;0.96;100.00
20909;BME280;10614;53.198;6.570;2024-01-06T02:58:39;100648.38;;;1.04;100.00
20909;BME280;10614;53.198;6.570;2024-01-06T03:00:41;100645.78;;;1.07;100.00
20909;BME280;10614;53.198;6.570;2024-01-06T03:02:43;100644.91;;;1.05;100.00
20909;BME280;10614;53.198;6.570;2024-01-06T03:04:44;100652.69;;;1.11;100.00
20909;BME280;10614;53.198;6.570;2024-01-06T03:06:46;100664.78;;;1.09;100.00
20909;BME280;10614;53.198;6.570;2024-01-06T03:08:52;100665.66;;;1.05;100.00
20909;BME280;10614;53.198;6.570;2024-01-06T03:10:55;100674.28;;;1.10;100.00
20909;BME280;10614;53.198;6.570;2024-01-06T03:12:57;100680.31;;;1.12;100.00
20909;BME280;10614;53.198;6.570;2024-01-06T03:14:59;100672.56;;;1.11;100.00
20909;BME280;10614;53.198;6.570;2024-01-06T03:17:00;100681.19;;;1.13;100.00
20909;BME280;10614;53.198;6.570;2024-01-06T03:19:03;100676.88;;;1.13;100.00
20909;BME280;10614;53.198;6.570;2024-01-06T03:21:04;100685.50;;;1.15;100.00
20909;BME280;10614;53.198;6.570;2024-01-06T03:23:06;100682.91;;;1.15;100.00
20909;BME280;10614;53.198;6.570;2024-01-06T03:25:07;100687.25;;;1.10;100.00
20909;BME280;10614;53.198;6.570;2024-01-06T03:27:11;100702.78;;;1.13;100.00
20909;BME280;10614;53.198;6.570;2024-01-06T03:29:13;100694.13;;;1.14;100.00
20909;BME280;10614;53.198;6.570;2024-01-06T03:31:14;100688.09;;;1.11;100.00
20909;BME280;10614;53.198;6.570;2024-01-06T03:33:16;100690.66;;;1.17;100.00
20909;BME280;10614;53.198;6.570;2024-01-06T03:35:18;100697.59;;;1.16;100.00
20909;BME280;10614;53.198;6.570;2024-01-06T03:37:18;100688.97;;;1.13;100.00
20909;BME280;10614;53.198;6.570;2024-01-06T03:39:22;100699.31;;;1.20;100.00
20909;BME280;10614;53.198;6.570;2024-01-06T03:41:24;100688.09;;;1.12;100.00
20909;BME280;10614;53.198;6.570;2024-01-06T03:43:26;100698.44;;;1.23;100.00
20909;BME280;10614;53.198;6.570;2024-01-06T03:45:28;100701.03;;;1.18;100.00
20909;BME280;10614;53.198;6.570;2024-01-06T03:47:30;100695.00;;;1.15;100.00
20909;BME280;10614;53.198;6.570;2024-01-06T03:49:31;100699.34;;;1.13;100.00
20909;BME280;10614;53.198;6.570;2024-01-06T03:51:33;100697.63;;;1.09;100.00
20909;BME280;10614;53.198;6.570;2024-01-06T03:53:35;100707.09;;;1.10;100.00
20909;BME280;10614;53.198;6.570;2024-01-06T03:55:35;100705.38;;;1.07;100.00
20909;BME280;10614;53.198;6.570;2024-01-06T03:57:38;100714.91;;;1.07;100.00
20909;BME280;10614;53.198;6.570;2024-01-06T03:59:42;100713.16;;;1.09;100.00
20909;BME280;10614;53.198;6.570;2024-01-06T04:01:43;100715.75;;;1.07;100.00
20909;BME280;10614;53.198;6.570;2024-01-06T04:03:45;100723.53;;;1.07;100.00
20909;BME280;10614;53.198;6.570;2024-01-06T04:05:47;100719.22;;;1.06;100.00
20909;BME280;10614;53.198;6.570;2024-01-06T04:07:48;100718.38;;;1.01;100.00
20909;BME280;10614;53.198;6.570;2024-01-06T04:09:49;100721.84;;;1.00;100.00
20909;BME280;10614;53.198;6.570;2024-01-06T04:11:51;100733.91;;;1.07;100.00
20909;BME280;10614;53.198;6.570;2024-01-06T04:13:53;100720.97;;;1.04;100.00
20909;BME280;10614;53.198;6.570;2024-01-06T04:15:56;100727.00;;;1.04;100.00
20909;BME280;10614;53.198;6.570;2024-01-06T04:18:01;100723.56;;;1.04;100.00
20909;BME280;10614;53.198;6.570;2024-01-06T04:20:04;100735.63;;;1.05;100.00
20909;BME280;10614;53.198;6.570;2024-01-06T04:22:05;100740.81;;;1.00;100.00
20909;BME280;10614;53.198;6.570;2024-01-06T04:24:06;100743.44;;;1.03;100.00
20909;BME280;10614;53.198;6.570;2024-01-06T04:26:10;100757.25;;;1.04;100.00
20909;BME280;10614;53.198;6.570;2024-01-06T04:28:12;100752.06;;;0.99;100.00
20909;BME280;10614;53.198;6.570;2024-01-06T04:30:13;100759.84;;;1.04;100.00
20909;BME280;10614;53.198;6.570;2024-01-06T04:32:17;100766.75;;;1.03;100.00
20909;BME280;10614;53.198;6.570;2024-01-06T04:34:18;100765.03;;;1.02;100.00
20909;BME280;10614;53.198;6.570;2024-01-06T04:36:20;100767.63;;;1.04;100.00
20909;BME280;10614;53.198;6.570;2024-01-06T04:38:22;100766.75;;;1.02;100.00
20909;BME280;10614;53.198;6.570;2024-01-06T04:40:23;100759.00;;;0.99;100.00
20909;BME280;10614;53.198;6.570;2024-01-06T04:42:24;100764.19;;;0.99;100.00
20909;BME280;10614;53.198;6.570;2024-01-06T04:44:26;100773.69;;;1.01;100.00
20909;BME280;10614;53.198;6.570;2024-01-06T04:46:28;100774.53;;;1.00;100.00
20909;BME280;10614;53.198;6.570;2024-01-06T04:48:32;100767.63;;;1.01;100.00
20909;BME280;10614;53.198;6.570;2024-01-06T04:50:34;100773.69;;;1.01;100.00
20909;BME280;10614;53.198;6.570;2024-01-06T04:52:35;100759.00;;;0.99;100.00
20909;BME280;10614;53.198;6.570;2024-01-06T04:54:37;100774.50;;;1.05;100.00
20909;BME280;10614;53.198;6.570;2024-01-06T04:56:39;100767.66;;;0.96;100.00
20909;BME280;10614;53.198;6.570;2024-01-06T04:58:41;100786.63;;;1.03;100.00
20909;BME280;10614;53.198;6.570;2024-01-06T05:00:41;100790.94;;;1.04;100.00
20909;BME280;10614;53.198;6.570;2024-01-06T05:02:43;100794.41;;;1.06;100.00
20909;BME280;10614;53.198;6.570;2024-01-06T05:04:47;100805.63;;;1.07;100.00
20909;BME280;10614;53.198;6.570;2024-01-06T05:06:48;100809.09;;;1.02;100.00
20909;BME280;10614;53.198;6.570;2024-01-06T05:08:51;100809.09;;;0.98;100.00
20909;BME280;10614;53.198;6.570;2024-01-06T05:10:53;100815.16;;;0.94;100.00
20909;BME280;10614;53.198;6.570;2024-01-06T05:12:55;100807.41;;;0.89;100.00
20909;BME280;10614;53.198;6.570;2024-01-06T05:14:57;100809.97;;;0.91;100.00
20909;BME280;10614;53.198;6.570;2024-01-06T05:16:57;100805.66;;;0.88;100.00
20909;BME280;10614;53.198;6.570;2024-01-06T05:18:59;100817.75;;;0.91;100.00
20909;BME280;10614;53.198;6.570;2024-01-06T05:21:03;100803.06;;;0.94;100.00
20909;BME280;10614;53.198;6.570;2024-01-06T05:23:05;100813.41;;;0.91;100.00
20909;BME280;10614;53.198;6.570;2024-01-06T05:25:08;100821.22;;;0.94;100.00
20909;BME280;10614;53.198;6.570;2024-01-06T05:27:09;100816.00;;;0.88;100.00
20909;BME280;10614;53.198;6.570;2024-01-06T05:29:11;100816.88;;;0.89;100.00
20909;BME280;10614;53.198;6.570;2024-01-06T05:31:12;100830.72;;;0.94;100.00
20909;BME280;10614;53.198;6.570;2024-01-06T05:33:15;100820.34;;;0.97;100.00
20909;BME280;10614;53.198;6.570;2024-01-06T05:35:17;100827.22;;;0.98;100.00
20909;BME280;10614;53.198;6.570;2024-01-06T05:37:20;100835.00;;;0.98;100.00
20909;BME280;10614;53.198;6.570;2024-01-06T05:39:21;100839.34;;;0.97;100.00
20909;BME280;10614;53.198;6.570;2024-01-06T05:41:22;100846.25;;;1.00;100.00
20909;BME280;10614;53.198;6.570;2024-01-06T05:43:24;100852.28;;;1.02;100.00
20909;BME280;10614;53.198;6.570;2024-01-06T05:45:26;100847.09;;;1.02;100.00
20909;BME280;10614;53.198;6.570;2024-01-06T05:47:28;100851.44;;;0.98;100.00
20909;BME280;10614;53.198;6.570;2024-01-06T05:49:29;100858.34;;;0.99;100.00
20909;BME280;10614;53.198;6.570;2024-01-06T05:51:33;100866.13;;;0.96;100.00
20909;BME280;10614;53.198;6.570;2024-01-06T05:53:37;100875.63;;;1.02;100.00
20909;BME280;10614;53.198;6.570;2024-01-06T05:55:38;100871.31;;;0.99;100.00
20909;BME280;10614;53.198;6.570;2024-01-06T05:57:40;100882.53;;;1.03;100.00
20909;BME280;10614;53.198;6.570;2024-01-06T05:59:41;100876.50;;;0.99;100.00
20909;BME280;10614;53.198;6.570;2024-01-06T06:01:43;100886.84;;;0.98;100.00
20909;BME280;10614;53.198;6.570;2024-01-06T06:03:44;100881.66;;;1.02;100.00
20909;BME280;10614;53.198;6.570;2024-01-06T06:05:46;100887.69;;;1.03;100.00
20909;BME280;10614;53.198;6.570;2024-01-06T06:07:48;100893.78;;;1.03;100.00
20909;BME280;10614;53.198;6.570;2024-01-06T06:09:51;100898.97;;;1.03;100.00
20909;BME280;10614;53.198;6.570;2024-01-06T06:11:53;100901.53;;;1.05;100.00
20909;BME280;10614;53.198;6.570;2024-01-06T06:13:55;100907.59;;;1.04;100.00
20909;BME280;10614;53.198;6.570;2024-01-06T06:15:55;100909.34;;;1.08;100.00
20909;BME280;10614;53.198;6.570;2024-01-06T06:17:58;100903.28;;;1.04;100.00
20909;BME280;10614;53.198;6.570;2024-01-06T06:20:01;100910.19;;;1.04;100.00
20909;BME280;10614;53.198;6.570;2024-01-06T06:22:03;100922.28;;;1.11;100.00
20909;BME280;10614;53.198;6.570;2024-01-06T06:24:05;100922.28;;;1.08;100.00
20909;BME280;10614;53.198;6.570;2024-01-06T06:26:09;100925.72;;;1.12;100.00
20909;BME280;10614;53.198;6.570;2024-01-06T06:28:12;100923.16;;;1.09;100.00
20909;BME280;10614;53.198;6.570;2024-01-06T06:30:14;100932.66;;;1.13;100.00
20909;BME280;10614;53.198;6.570;2024-01-06T06:32:16;100936.09;;;1.12;100.00
20909;BME280;10614;53.198;6.570;2024-01-06T06:34:18;100941.28;;;1.07;100.00
20909;BME280;10614;53.198;6.570;2024-01-06T06:36:20;100951.66;;;1.04;100.00
20909;BME280;10614;53.198;6.570;2024-01-06T06:38:20;100945.63;;;1.08;100.00
20909;BME280;10614;53.198;6.570;2024-01-06T06:40:22;100956.84;;;1.04;100.00
20909;BME280;10614;53.198;6.570;2024-01-06T06:42:25;100960.31;;;1.06;100.00
20909;BME280;10614;53.198;6.570;2024-01-06T06:44:27;100962.03;;;1.07;100.00
20909;BME280;10614;53.198;6.570;2024-01-06T06:46:29;100965.50;;;1.06;100.00
20909;BME280;10614;53.198;6.570;2024-01-06T06:48:32;100962.03;;;1.05;100.00
20909;BME280;10614;53.198;6.570;2024-01-06T06:50:33;100970.66;;;1.08;100.00
20909;BME280;10614;53.198;6.570;2024-01-06T06:52:35;100981.06;;;1.06;100.00
20909;BME280;10614;53.198;6.570;2024-01-06T06:54:37;100974.97;;;1.02;100.00
20909;BME280;10614;53.198;6.570;2024-01-06T06:56:37;100987.09;;;1.07;100.00
20909;BME280;10614;53.198;6.570;2024-01-06T06:58:41;100984.50;;;1.08;100.00
20909;BME280;10614;53.198;6.570;2024-01-06T07:00:42;100993.16;;;1.09;100.00
20909;BME280;10614;53.198;6.570;2024-01-06T07:02:44;100987.97;;;1.09;100.00
20909;BME280;10614;53.198;6.570;2024-01-06T07:04:45;100987.94;;;1.07;100.00
20909;BME280;10614;53.198;6.570;2024-01-06T07:06:46;101002.66;;;1.13;100.00
20909;BME280;10614;53.198;6.570;2024-01-06T07:08:48;101006.09;;;1.12;100.00
20909;BME280;10614;53.198;6.570;2024-01-06T07:10:50;101002.63;;;1.10;100.00
20909;BME280;10614;53.198;6.570;2024-01-06T07:12:52;101008.72;;;1.10;100.00
20909;BME280;10614;53.198;6.570;2024-01-06T07:14:55;101011.31;;;1.05;100.00
20909;BME280;10614;53.198;6.570;2024-01-06T07:16:58;101025.97;;;1.07;100.00
20909;BME280;10614;53.198;6.570;2024-01-06T07:19:00;101025.97;;;1.05;100.00
20909;BME280;10614;53.198;6.570;2024-01-06T07:21:04;101031.16;;;1.03;100.00
20909;BME280;10614;53.198;6.570;2024-01-06T07:23:06;101032.88;;;1.01;100.00
20909;BME280;10614;53.198;6.570;2024-01-06T07:25:11;101037.19;;;0.99;100.00
20909;BME280;10614;53.198;6.570;2024-01-06T07:27:12;101033.72;;;1.00;100.00
20909;BME280;10614;53.198;6.570;2024-01-06T07:29:15;101035.47;;;1.03;100.00
20909;BME280;10614;53.198;6.570;2024-01-06T07:31:18;101047.56;;;1.04;100.00
20909;BME280;10614;53.198;6.570;2024-01-06T07:33:20;101047.56;;;1.07;100.00
20909;BME280;10614;53.198;6.570;2024-01-06T07:35:21;101049.28;;;1.05;100.00
20909;BME280;10614;53.198;6.570;2024-01-06T07:37:23;101057.97;;;1.05;100.00
20909;BME280;10614;53.198;6.570;2024-01-06T07:39:23;101051.03;;;1.01;100.00
20909;BME280;10614;53.198;6.570;2024-01-06T07:41:25;101055.34;;;1.01;100.00
20909;BME280;10614;53.198;6.570;2024-01-06T07:43:27;101038.06;;;0.97;100.00
20909;BME280;10614;53.198;6.570;2024-01-06T07:45:29;101055.34;;;1.02;100.00
20909;BME280;10614;53.198;6.570;2024-01-06T07:47:31;101055.34;;;1.04;100.00
20909;BME280;10614;53.198;6.570;2024-01-06T07:49:32;101067.44;;;1.05;100.00
20909;BME280;10614;53.198;6.570;2024-01-06T07:51:34;101056.22;;;1.06;100.00
20909;BME280;10614;53.198;6.570;2024-01-06T07:53:35;101058.78;;;1.03;100.00
20909;BME280;10614;53.198;6.570;2024-01-06T07:55:36;101071.75;;;1.04;100.00
20909;BME280;10614;53.198;6.570;2024-01-06T07:57:38;101075.22;;;1.05;100.00
20909;BME280;10614;53.198;6.570;2024-01-06T07:59:40;101080.44;;;1.08;100.00
20909;BME280;10614;53.198;6.570;2024-01-06T08:01:41;101074.38;;;1.06;100.00
20909;BME280;10614;53.198;6.570;2024-01-06T08:03:44;101087.34;;;1.11;100.00
20909;BME280;10614;53.198;6.570;2024-01-06T08:05:46;101086.47;;;1.12;100.00
20909;BME280;10614;53.198;6.570;2024-01-06T08:07:48;101083.91;;;1.15;100.00
20909;BME280;10614;53.198;6.570;2024-01-06T08:09:49;101087.34;;;1.17;100.00
20909;BME280;10614;53.198;6.570;2024-01-06T08:11:51;101079.56;;;1.12;100.00
20909;BME280;10614;53.198;6.570;2024-01-06T08:13:54;101083.91;;;1.13;100.00
20909;BME280;10614;53.198;6.570;2024-01-06T08:15:56;101084.75;;;1.17;100.00
20909;BME280;10614;53.198;6.570;2024-01-06T08:17:57;101088.22;;;1.19;100.00
20909;BME280;10614;53.198;6.570;2024-01-06T08:20:00;101103.78;;;1.20;100.00
20909;BME280;10614;53.198;6.570;2024-01-06T08:22:03;101102.03;;;1.19;100.00
20909;BME280;10614;53.198;6.570;2024-01-06T08:24:05;101103.78;;;1.20;100.00
20909;BME280;10614;53.198;6.570;2024-01-06T08:26:07;101113.31;;;1.23;100.00
20909;BME280;10614;53.198;6.570;2024-01-06T08:28:08;101112.44;;;1.25;100.00
20909;BME280;10614;53.198;6.570;2024-01-06T08:30:12;101115.06;;;1.27;100.00
20909;BME280;10614;53.198;6.570;2024-01-06T08:32:14;101124.59;;;1.31;100.00
20909;BME280;10614;53.198;6.570;2024-01-06T08:34:16;101123.69;;;1.31;100.00
20909;BME280;10614;53.198;6.570;2024-01-06T08:36:19;101120.22;;;1.29;100.00
20909;BME280;10614;53.198;6.570;2024-01-06T08:38:21;101138.38;;;1.30;100.00
20909;BME280;10614;53.198;6.570;2024-01-06T08:40:23;101140.13;;;1.30;100.00
20909;BME280;10614;53.198;6.570;2024-01-06T08:42:25;101133.19;;;1.24;100.00
20909;BME280;10614;53.198;6.570;2024-01-06T08:44:27;101140.13;;;1.26;100.00
20909;BME280;10614;53.198;6.570;2024-01-06T08:46:29;101145.31;;;1.30;100.00
20909;BME280;10614;53.198;6.570;2024-01-06T08:48:31;101147.91;;;1.30;100.00
20909;BME280;10614;53.198;6.570;2024-01-06T08:50:32;101153.09;;;1.31;100.00
20909;BME280;10614;53.198;6.570;2024-01-06T08:52:36;101157.41;;;1.29;100.00
20909;BME280;10614;53.198;6.570;2024-01-06T08:54:37;101140.97;;;1.24;100.00
20909;BME280;10614;53.198;6.570;2024-01-06T08:56:39;101163.47;;;1.34;100.00
20909;BME280;10614;53.198;6.570;2024-01-06T08:58:41;101171.25;;;1.36;100.00
20909;BME280;10614;53.198;6.570;2024-01-06T09:00:43;101164.34;;;1.36;100.00
20909;BME280;10614;53.198;6.570;2024-01-06T09:02:44;101153.94;;;1.29;100.00
20909;BME280;10614;53.198;6.570;2024-01-06T09:04:46;101170.41;;;1.38;100.00
20909;BME280;10614;53.198;6.570;2024-01-06T09:06:47;101166.97;;;1.41;100.00
20909;BME280;10614;53.198;6.570;2024-01-06T09:08:50;101168.69;;;1.42;100.00
20909;BME280;10614;53.198;6.570;2024-01-06T09:10:51;101163.50;;;1.42;100.00
20909;BME280;10614;53.198;6.570;2024-01-06T09:12:56;101178.22;;;1.43;100.00
20909;BME280;10614;53.198;6.570;2024-01-06T09:14:58;101177.31;;;1.42;100.00
20909;BME280;10614;53.198;6.570;2024-01-06T09:16:59;101186.84;;;1.43;100.00
20909;BME280;10614;53.198;6.570;2024-01-06T09:19:01;101186.88;;;1.48;100.00
20909;BME280;10614;53.198;6.570;2024-01-06T09:21:03;101194.63;;;1.46;100.00
20909;BME280;10614;53.198;6.570;2024-01-06T09:23:06;101184.25;;;1.42;100.00
20909;BME280;10614;53.198;6.570;2024-01-06T09:25:09;101192.91;;;1.48;100.00
20909;BME280;10614;53.198;6.570;2024-01-06T09:27:13;101197.25;;;1.51;100.00
20909;BME280;10614;53.198;6.570;2024-01-06T09:29:15;101192.03;;;1.45;100.00
20909;BME280;10614;53.198;6.570;2024-01-06T09:31:17;101186.00;;;1.46;100.00
20909;BME280;10614;53.198;6.570;2024-01-06T09:33:19;101203.31;;;1.50;100.00
20909;BME280;10614;53.198;6.570;2024-01-06T09:35:19;101199.81;;;1.43;100.00
20909;BME280;10614;53.198;6.570;2024-01-06T09:37:21;101198.09;;;1.47;100.00
20909;BME280;10614;53.198;6.570;2024-01-06T09:39:23;101204.16;;;1.46;100.00
20909;BME280;10614;53.198;6.570;2024-01-06T09:41:26;101208.47;;;1.48;100.00
20909;BME280;10614;53.198;6.570;2024-01-06T09:43:28;101213.66;;;1.47;100.00
20909;BME280;10614;53.198;6.570;2024-01-06T09:45:30;101204.13;;;1.44;100.00
20909;BME280;10614;53.198;6.570;2024-01-06T09:47:34;101231.88;;;1.55;100.00
20909;BME280;10614;53.198;6.570;2024-01-06T09:49:38;101225.81;;;1.53;100.00
20909;BME280;10614;53.198;6.570;2024-01-06T09:51:40;101232.69;;;1.49;100.00
20909;BME280;10614;53.198;6.570;2024-01-06T09:53:48;101240.47;;;1.49;100.00
20909;BME280;10614;53.198;6.570;2024-01-06T09:55:50;101231.84;;;1.50;100.00
20909;BME280;10614;53.198;6.570;2024-01-06T09:57:54;101220.53;;;1.40;100.00
20909;BME280;10614;53.198;6.570;2024-01-06T09:59:57;101238.75;;;1.51;100.00
20909;BME280;10614;53.198;6.570;2024-01-06T10:02:00;101231.84;;;1.50;100.00
20909;BME280;10614;53.198;6.570;2024-01-06T10:04:01;101232.69;;;1.46;100.00
20909;BME280;10614;53.198;6.570;2024-01-06T10:06:04;101232.72;;;1.47;100.00
20909;BME280;10614;53.198;6.570;2024-01-06T10:08:06;101240.47;;;1.49;100.00
20909;BME280;10614;53.198;6.570;2024-01-06T10:10:08;101253.47;;;1.55;100.00
20909;BME280;10614;53.198;6.570;2024-01-06T10:12:10;101250.88;;;1.54;100.00
20909;BME280;10614;53.198;6.570;2024-01-06T10:14:14;101256.06;;;1.57;100.00
20909;BME280;10614;53.198;6.570;2024-01-06T10:16:15;101256.06;;;1.54;100.00
20909;BME280;10614;53.198;6.570;2024-01-06T10:18:18;101250.84;;;1.52;100.00
20909;BME280;10614;53.198;6.570;2024-01-06T10:20:21;101254.34;;;1.56;100.00
20909;BME280;10614;53.198;6.570;2024-01-06T10:22:22;101263.03;;;1.59;100.00
20909;BME280;10614;53.198;6.570;2024-01-06T10:24:24;101263.03;;;1.59;100.00
20909;BME280;10614;53.198;6.570;2024-01-06T10:26:26;101259.56;;;1.62;100.00
20909;BME280;10614;53.198;6.570;2024-01-06T10:28:28;101241.34;;;1.54;100.00
20909;BME280;10614;53.198;6.570;2024-01-06T10:30:31;101252.63;;;1.65;100.00
20909;BME280;10614;53.198;6.570;2024-01-06T10:32:34;101257.84;;;1.64;100.00
20909;BME280;10614;53.198;6.570;2024-01-06T10:34:36;101262.16;;;1.57;100.00
20909;BME280;10614;53.198;6.570;2024-01-06T10:36:39;101258.66;;;1.55;100.00
20909;BME280;10614;53.198;6.570;2024-01-06T10:38:40;101272.53;;;1.62;100.00
20909;BME280;10614;53.198;6.570;2024-01-06T10:40:56;101276.00;;;1.62;100.00
20909;BME280;10614;53.198;6.570;2024-01-06T10:42:57;101276.84;;;1.61;100.00
20909;BME280;10614;53.198;6.570;2024-01-06T10:44:59;101269.94;;;1.62;100.00
20909;BME280;10614;53.198;6.570;2024-01-06T10:47:03;101274.25;;;1.63;100.00